Station Historical Data
Daily Summary for November 2, 2017 Units:  English    Metric   Both
« Previous Day
Next Day »
Daily Weekly Monthly Yearly Custom
  High: Low: Average:
Temperature: 72.7 °F 54.7 °F 62.3 °F
Dew Point: 60.8 °F 52.1 °F 56.3 °F
Humidity: 92% 58% 82%
Wind Speed: 2.3mph 0.0mph 0.1mph
Wind Gust: 2.3mph - -
Wind- - West
Pressure: 30.27 in 30.18 in -
Precipitation: 0.00 in    
Historical Graphs
 
 
Tabular Data for November 2, 2017
Time Temperature Dew Point Pressure Wind Wind Speed Wind Gust Humidity Rainfall Rate (Hourly) solar Conditions
00:02 56.2 °F 53.3 °F 30.19 in Calm     90% 0.00 in WeatherDisplay:10.37 W/m2 CLR
00:07 56.0 °F 53.1 °F 30.19 in Calm     90% 0.00 in WeatherDisplay:10.37 W/m2 CLR
00:12 55.8 °F 52.9 °F 30.19 in Calm     90% 0.00 in WeatherDisplay:10.37 W/m2 CLR
00:17 55.5 °F 52.6 °F 30.19 in Calm     90% 0.00 in WeatherDisplay:10.37 W/m2 CLR
00:23 55.3 °F 52.4 °F 30.19 in Calm     90% 0.00 in WeatherDisplay:10.37 W/m2 CLR
00:28 55.3 °F 52.7 °F 30.19 in Calm     91% 0.00 in WeatherDisplay:10.37 W/m2 CLR
00:31 55.3 °F 52.7 °F 30.19 in Calm     91% 0.00 in WeatherDisplay:10.37 W/m2 CLR
00:36 55.3 °F 52.7 °F 30.20 in Calm     91% 0.00 in WeatherDisplay:10.37 W/m2 CLR
00:41 55.3 °F 52.7 °F 30.19 in Calm     91% 0.00 in WeatherDisplay:10.37 W/m2 CLR
00:46 55.2 °F 52.6 °F 30.19 in Calm     91% 0.00 in WeatherDisplay:10.37 W/m2 CLR
00:51 55.2 °F 52.6 °F 30.19 in Calm     91% 0.00 in WeatherDisplay:10.37 W/m2 CLR
00:56 55.3 °F 52.7 °F 30.20 in Calm     91% 0.00 in WeatherDisplay:10.37 W/m2 CLR
01:01 55.3 °F 53.0 °F 30.19 in Calm     92% 0.00 in WeatherDisplay:10.37 W/m2 BKN
01:06 55.3 °F 53.0 °F 30.19 in Calm     92% 0.00 in WeatherDisplay:10.37 W/m2 BKN
01:11 55.2 °F 52.9 °F 30.19 in Calm     92% 0.00 in WeatherDisplay:10.37 W/m2 BKN
01:16 55.1 °F 52.8 °F 30.19 in Calm     92% 0.00 in WeatherDisplay:10.37 W/m2 BKN
01:20 55.1 °F 52.8 °F 30.19 in Calm     92% 0.00 in WeatherDisplay:10.37 W/m2 BKN
01:25 55.2 °F 52.9 °F 30.19 in Calm     92% 0.00 in WeatherDisplay:10.37 W/m2 BKN
01:30 55.3 °F 53.0 °F 30.19 in Calm     92% 0.00 in WeatherDisplay:10.37 W/m2 BKN
01:35 55.5 °F 53.2 °F 30.19 in Calm     92% 0.00 in WeatherDisplay:10.37 W/m2 BKN
01:41 55.6 °F 53.3 °F 30.19 in Calm     92% 0.00 in WeatherDisplay:10.37 W/m2 BKN
01:46 55.6 °F 53.3 °F 30.19 in Calm     92% 0.00 in WeatherDisplay:10.37 W/m2 BKN
01:51 55.7 °F 53.4 °F 30.19 in Calm     92% 0.00 in WeatherDisplay:10.37 W/m2 BKN
01:56 55.8 °F 53.5 °F 30.19 in Calm     92% 0.00 in WeatherDisplay:10.37 W/m2 BKN
02:01 55.8 °F 53.2 °F 30.19 in Calm     91% 0.00 in WeatherDisplay:10.37 W/m2 SCT
02:06 55.8 °F 53.2 °F 30.19 in Calm     91% 0.00 in WeatherDisplay:10.37 W/m2 SCT
02:11 55.9 °F 53.3 °F 30.19 in Calm     91% 0.00 in WeatherDisplay:10.37 W/m2 SCT
02:16 55.9 °F 53.3 °F 30.19 in Calm     91% 0.00 in WeatherDisplay:10.37 W/m2 SCT
02:21 55.9 °F 53.3 °F 30.19 in Calm     91% 0.00 in WeatherDisplay:10.37 W/m2 SCT
02:26 55.9 °F 53.3 °F 30.19 in Calm     91% 0.00 in WeatherDisplay:10.37 W/m2 SCT
02:31 55.9 °F 53.3 °F 30.19 in Calm     91% 0.00 in WeatherDisplay:10.37 W/m2 SCT
02:36 55.8 °F 53.2 °F 30.19 in Calm     91% 0.00 in WeatherDisplay:10.37 W/m2 SCT
02:41 55.7 °F 53.1 °F 30.19 in Calm     91% 0.00 in WeatherDisplay:10.37 W/m2 SCT
02:46 55.8 °F 53.2 °F 30.19 in Calm     91% 0.00 in WeatherDisplay:10.37 W/m2 SCT
02:51 55.9 °F 53.3 °F 30.19 in Calm     91% 0.00 in WeatherDisplay:10.37 W/m2 SCT
02:56 55.9 °F 53.6 °F 30.19 in Calm     92% 0.00 in WeatherDisplay:10.37 W/m2 SCT
03:01 55.9 °F 53.3 °F 30.19 in Calm     91% 0.00 in WeatherDisplay:10.37 W/m2 BKN
03:06 55.9 °F 53.3 °F 30.19 in Calm     91% 0.00 in WeatherDisplay:10.37 W/m2 BKN
03:11 55.8 °F 53.2 °F 30.19 in Calm     91% 0.00 in WeatherDisplay:10.37 W/m2 BKN
03:16 55.8 °F 53.2 °F 30.19 in Calm     91% 0.00 in WeatherDisplay:10.37 W/m2 BKN
03:21 55.9 °F 53.3 °F 30.19 in Calm     91% 0.00 in WeatherDisplay:10.37 W/m2 BKN
03:27 56.0 °F 53.4 °F 30.19 in Calm     91% 0.00 in WeatherDisplay:10.37 W/m2 BKN
03:32 56.0 °F 53.4 °F 30.19 in Calm     91% 0.00 in WeatherDisplay:10.37 W/m2 BKN
03:37 56.0 °F 53.4 °F 30.19 in Calm     91% 0.00 in WeatherDisplay:10.37 W/m2 BKN
03:42 55.9 °F 53.3 °F 30.19 in Calm     91% 0.00 in WeatherDisplay:10.37 W/m2 BKN
03:47 55.9 °F 53.3 °F 30.19 in Calm     91% 0.00 in WeatherDisplay:10.37 W/m2 BKN
03:52 55.9 °F 53.3 °F 30.19 in Calm     91% 0.00 in WeatherDisplay:10.37 W/m2 BKN
03:57 55.9 °F 53.3 °F 30.19 in Calm     91% 0.00 in WeatherDisplay:10.37 W/m2 BKN
04:02 55.9 °F 53.3 °F 30.19 in Calm     91% 0.00 in WeatherDisplay:10.37 W/m2 BKN
04:07 55.9 °F 53.3 °F 30.19 in Calm     91% 0.00 in WeatherDisplay:10.37 W/m2 BKN
04:12 55.9 °F 53.3 °F 30.19 in Calm     91% 0.00 in WeatherDisplay:10.37 W/m2 BKN
04:17 55.9 °F 53.6 °F 30.19 in Calm     92% 0.00 in WeatherDisplay:10.37 W/m2 BKN
04:22 55.9 °F 53.3 °F 30.19 in Calm     91% 0.00 in WeatherDisplay:10.37 W/m2 BKN
04:27 55.8 °F 53.2 °F 30.19 in Calm     91% 0.00 in WeatherDisplay:10.37 W/m2 BKN
04:32 55.9 °F 53.6 °F 30.19 in Calm     92% 0.00 in WeatherDisplay:10.37 W/m2 BKN
04:37 55.9 °F 53.6 °F 30.19 in Calm     92% 0.00 in WeatherDisplay:10.37 W/m2 BKN
04:42 55.9 °F 53.6 °F 30.18 in Calm     92% 0.00 in WeatherDisplay:10.37 W/m2 BKN
04:47 55.9 °F 53.6 °F 30.19 in Calm     92% 0.00 in WeatherDisplay:10.37 W/m2 BKN
04:52 55.8 °F 53.5 °F 30.19 in Calm     92% 0.00 in WeatherDisplay:10.37 W/m2 BKN
04:57 55.8 °F 53.5 °F 30.19 in Calm     92% 0.00 in WeatherDisplay:10.37 W/m2 BKN
05:02 55.9 °F 53.6 °F 30.20 in Calm     92% 0.00 in WeatherDisplay:10.37 W/m2 SCT
05:07 55.9 °F 53.6 °F 30.20 in Calm     92% 0.00 in WeatherDisplay:10.37 W/m2 SCT
05:12 55.9 °F 53.3 °F 30.20 in Calm     91% 0.00 in WeatherDisplay:10.37 W/m2 SCT
05:17 55.9 °F 53.3 °F 30.19 in Calm     91% 0.00 in WeatherDisplay:10.37 W/m2 SCT
05:22 55.9 °F 53.3 °F 30.19 in Calm     91% 0.00 in WeatherDisplay:10.37 W/m2 SCT
05:27 55.9 °F 53.3 °F 30.20 in Calm     91% 0.00 in WeatherDisplay:10.37 W/m2 SCT
05:32 55.8 °F 53.2 °F 30.20 in Calm     91% 0.00 in WeatherDisplay:10.37 W/m2 SCT
05:35 55.8 °F 53.2 °F 30.20 in Calm     91% 0.00 in WeatherDisplay:10.37 W/m2 SCT
05:40 55.6 °F 52.7 °F 30.20 in Calm     90% 0.00 in WeatherDisplay:10.37 W/m2 SCT
05:45 55.6 °F 52.7 °F 30.20 in Calm     90% 0.00 in WeatherDisplay:10.37 W/m2 SCT
05:50 55.4 °F 52.5 °F 30.20 in Calm     90% 0.00 in WeatherDisplay:10.37 W/m2 SCT
05:55 55.3 °F 52.4 °F 30.20 in Calm     90% 0.00 in WeatherDisplay:10.37 W/m2 SCT
06:00 55.1 °F 52.2 °F 30.20 in Calm     90% 0.00 in WeatherDisplay:10.37 W/m2 SCT
06:05 55.0 °F 52.4 °F 30.20 in Calm     91% 0.00 in WeatherDisplay:10.37 W/m2 BKN
06:10 55.0 °F 52.4 °F 30.20 in Calm     91% 0.00 in WeatherDisplay:10.37 W/m2 BKN
06:15 54.9 °F 52.3 °F 30.20 in Calm     91% 0.00 in WeatherDisplay:10.37 W/m2 BKN
06:20 54.9 °F 52.3 °F 30.20 in Calm     91% 0.00 in WeatherDisplay:10.37 W/m2 BKN
06:25 54.9 °F 52.3 °F 30.20 in Calm     91% 0.00 in WeatherDisplay:10.37 W/m2 BKN
06:30 54.8 °F 52.2 °F 30.20 in Calm     91% 0.00 in WeatherDisplay:10.37 W/m2 BKN
06:35 54.7 °F 52.1 °F 30.20 in Calm     91% 0.00 in WeatherDisplay:10.37 W/m2 BKN
06:40 54.8 °F 52.2 °F 30.21 in Calm     91% 0.00 in WeatherDisplay:10.37 W/m2 BKN
06:45 54.8 °F 52.5 °F 30.21 in Calm     92% 0.00 in WeatherDisplay:10.37 W/m2 BKN
06:50 54.9 °F 52.6 °F 30.21 in Calm     92% 0.00 in WeatherDisplay:10.37 W/m2 BKN
06:55 55.0 °F 52.7 °F 30.21 in Calm     92% 0.00 in WeatherDisplay:10.37 W/m2 BKN
07:00 55.1 °F 52.5 °F 30.21 in Calm     91% 0.00 in WeatherDisplay:10.37 W/m2 BKN
07:05 55.1 °F 52.5 °F 30.22 in Calm     91% 0.00 in WeatherDisplay:10.37 W/m2 OVC
07:10 55.2 °F 52.6 °F 30.22 in Calm     91% 0.00 in WeatherDisplay:10.37 W/m2 OVC
07:16 55.3 °F 52.7 °F 30.22 in Calm     91% 0.00 in WeatherDisplay:10.37 W/m2 OVC
07:21 55.3 °F 52.7 °F 30.22 in Calm     91% 0.00 in WeatherDisplay:10.37 W/m2 OVC
07:26 55.3 °F 52.7 °F 30.22 in Calm     91% 0.00 in WeatherDisplay:10.37 W/m2 OVC
07:31 55.4 °F 52.8 °F 30.22 in Calm     91% 0.00 in WeatherDisplay:10.37 W/m2 OVC
07:36 55.5 °F 52.6 °F 30.22 in Calm     90% 0.00 in WeatherDisplay:10.37 W/m2 OVC
07:41 55.5 °F 52.6 °F 30.22 in Calm     90% 0.00 in WeatherDisplay:10.37 W/m2 OVC
07:46 55.6 °F 52.7 °F 30.22 in Calm     90% 0.00 in WeatherDisplay:10.37 W/m2 OVC
07:51 55.5 °F 52.6 °F 30.22 in Calm     90% 0.00 in WeatherDisplay:10.37 W/m2 OVC
07:56 55.6 °F 53.0 °F 30.22 in Calm     91% 0.00 in WeatherDisplay:10.37 W/m2 OVC
08:01 55.5 °F 52.9 °F 30.23 in Calm     91% 0.00 in WeatherDisplay:10.37 W/m2 BKN
08:06 55.5 °F 52.9 °F 30.23 in Calm     91% 0.00 in WeatherDisplay:10.37 W/m2 BKN
08:11 55.5 °F 52.9 °F 30.23 in Calm     91% 0.00 in WeatherDisplay:10.37 W/m2 BKN
08:16 55.5 °F 52.9 °F 30.23 in Calm     91% 0.00 in WeatherDisplay:10.37 W/m2 BKN
08:21 55.5 °F 52.9 °F 30.23 in Calm     91% 0.00 in WeatherDisplay:10.37 W/m2 BKN
08:26 55.5 °F 52.9 °F 30.23 in Calm     91% 0.00 in WeatherDisplay:10.37 W/m2 BKN
08:31 55.6 °F 53.0 °F 30.23 in Calm     91% 0.00 in WeatherDisplay:10.37 W/m2 BKN
08:36 55.6 °F 53.0 °F 30.24 in Calm     91% 0.00 in WeatherDisplay:10.37 W/m2 BKN
08:41 55.7 °F 53.1 °F 30.24 in Calm     91% 0.00 in WeatherDisplay:10.37 W/m2 BKN
08:46 55.8 °F 53.2 °F 30.24 in Calm     91% 0.00 in WeatherDisplay:10.37 W/m2 BKN
08:51 55.9 °F 53.3 °F 30.24 in Calm     91% 0.00 in WeatherDisplay:10.37 W/m2 BKN
08:56 56.1 °F 53.5 °F 30.24 in Calm     91% 0.00 in WeatherDisplay:10.37 W/m2 BKN
09:01 56.3 °F 53.7 °F 30.24 in Calm     91% 0.00 in WeatherDisplay:10.37 W/m2 OVC
09:06 56.5 °F 53.9 °F 30.24 in Calm     91% 0.00 in WeatherDisplay:10.37 W/m2 OVC
09:12 56.5 °F 53.9 °F 30.24 in Calm     91% 0.00 in WeatherDisplay:10.37 W/m2 OVC
09:17 56.5 °F 53.9 °F 30.25 in Calm     91% 0.00 in WeatherDisplay:10.37 W/m2 OVC
09:22 56.6 °F 54.0 °F 30.25 in Calm     91% 0.00 in WeatherDisplay:10.37 W/m2 OVC
09:27 56.8 °F 54.2 °F 30.25 in Calm     91% 0.00 in WeatherDisplay:10.37 W/m2 OVC
09:32 56.9 °F 54.3 °F 30.25 in Calm     91% 0.00 in WeatherDisplay:10.37 W/m2 OVC
09:37 57.1 °F 54.5 °F 30.25 in Calm     91% 0.00 in WeatherDisplay:10.37 W/m2 OVC
09:42 57.4 °F 54.8 °F 30.25 in WNW 1.2 mph   91% 0.00 in WeatherDisplay:10.37 W/m2 OVC
09:47 57.9 °F 55.0 °F 30.25 in West 1.2 mph 1.2 mph 90% 0.00 in WeatherDisplay:10.37 W/m2 OVC
09:52 58.5 °F 55.6 °F 30.25 in Calm     90% 0.00 in WeatherDisplay:10.37 W/m2 OVC
09:57 58.8 °F 55.6 °F 30.26 in Calm     89% 0.00 in WeatherDisplay:10.37 W/m2 OVC
10:02 59.0 °F 55.8 °F 30.26 in Calm     89% 0.00 in WeatherDisplay:10.37 W/m2 OVC
10:07 59.2 °F 56.0 °F 30.26 in Calm     89% 0.00 in WeatherDisplay:10.37 W/m2 OVC
10:12 59.4 °F 56.2 °F 30.26 in Calm     89% 0.00 in WeatherDisplay:10.37 W/m2 BKN
10:17 59.6 °F 56.4 °F 30.26 in Calm     89% 0.00 in WeatherDisplay:10.37 W/m2 BKN
10:22 59.7 °F 56.1 °F 30.26 in WNW 1.0 mph   88% 0.00 in WeatherDisplay:10.37 W/m2 BKN
10:23 59.7 °F 56.5 °F 30.26 in WNW 1.2 mph 1.2 mph 89% 0.00 in WeatherDisplay:10.37 W/m2 BKN
10:28 59.8 °F 56.6 °F 30.27 in Calm     89% 0.00 in WeatherDisplay:10.37 W/m2 BKN
10:33 60.1 °F 56.5 °F 30.26 in Calm     88% 0.00 in WeatherDisplay:10.37 W/m2 BKN
10:38 61.0 °F 56.5 °F 30.27 in Calm     85% 0.00 in WeatherDisplay:10.37 W/m2 BKN
10:43 62.0 °F 56.8 °F 30.26 in WNW 1.0 mph   83% 0.00 in WeatherDisplay:10.37 W/m2 BKN
10:48 62.7 °F 56.4 °F 30.26 in Calm     80% 0.00 in WeatherDisplay:10.37 W/m2 BKN
10:53 63.2 °F 56.9 °F 30.27 in WNW 1.2 mph   80% 0.00 in WeatherDisplay:10.37 W/m2 BKN
10:58 63.5 °F 56.2 °F 30.27 in WNW 1.2 mph   77% 0.00 in WeatherDisplay:10.37 W/m2 BKN
11:04 63.7 °F 56.7 °F 30.27 in Calm     78% 0.00 in WeatherDisplay:10.37 W/m2 BKN
11:09 64.1 °F 57.5 °F 30.26 in Calm     79% 0.00 in WeatherDisplay:10.37 W/m2 BKN
11:14 64.5 °F 57.5 °F 30.26 in Calm     78% 0.00 in WeatherDisplay:10.37 W/m2 BKN
11:19 65.0 °F 56.9 °F 30.26 in Calm     75% 0.00 in WeatherDisplay:10.37 W/m2 BKN
11:24 65.9 °F 57.0 °F 30.26 in West 1.2 mph 1.2 mph 73% 0.00 in WeatherDisplay:10.37 W/m2 BKN
11:29 66.4 °F 57.5 °F 30.26 in West 1.2 mph   73% 0.00 in WeatherDisplay:10.37 W/m2 BKN
11:34 66.7 °F 55.8 °F 30.26 in WNW 1.2 mph   68% 0.00 in WeatherDisplay:10.37 W/m2 BKN
11:39 67.0 °F 56.9 °F 30.25 in Calm     70% 0.00 in WeatherDisplay:10.37 W/m2 BKN
11:44 67.3 °F 56.4 °F 30.25 in Calm     68% 0.00 in WeatherDisplay:10.37 W/m2 BKN
11:49 67.7 °F 56.8 °F 30.25 in Calm     68% 0.00 in WeatherDisplay:10.37 W/m2 BKN
11:54 67.8 °F 56.9 °F 30.25 in NW 1.2 mph 1.2 mph 68% 0.00 in WeatherDisplay:10.37 W/m2 BKN
11:59 67.6 °F 55.8 °F 30.25 in Calm     66% 0.00 in WeatherDisplay:10.37 W/m2 BKN
12:04 67.7 °F 55.9 °F 30.25 in Calm     66% 0.00 in WeatherDisplay:10.37 W/m2 BKN
12:09 67.8 °F 56.0 °F 30.25 in Calm     66% 0.00 in WeatherDisplay:10.37 W/m2 BKN
12:14 67.9 °F 56.1 °F 30.25 in North 1.2 mph   66% 0.00 in WeatherDisplay:10.37 W/m2 BKN
12:19 68.2 °F 55.6 °F 30.25 in West 1.2 mph 1.2 mph 64% 0.00 in WeatherDisplay:10.37 W/m2 BKN
12:25 68.7 °F 56.0 °F 30.25 in Calm     64% 0.00 in WeatherDisplay:10.37 W/m2 BKN
12:30 69.0 °F 55.4 °F 30.25 in WNW 1.2 mph   62% 0.00 in WeatherDisplay:10.37 W/m2 BKN
12:35 69.5 °F 55.5 °F 30.25 in WNW 1.2 mph 1.2 mph 61% 0.00 in WeatherDisplay:10.37 W/m2 BKN
12:40 69.9 °F 55.9 °F 30.25 in Calm   1.0 mph 61% 0.00 in WeatherDisplay:10.37 W/m2 BKN
12:45 70.0 °F 54.5 °F 30.24 in Calm   2.0 mph 58% 0.00 in WeatherDisplay:10.37 W/m2 BKN
12:50 70.2 °F 54.7 °F 30.24 in Calm   1.0 mph 58% 0.00 in WeatherDisplay:10.37 W/m2 BKN
12:55 70.3 °F 55.8 °F 30.24 in Calm   1.0 mph 60% 0.00 in WeatherDisplay:10.37 W/m2 BKN
13:00 70.6 °F 55.6 °F 30.24 in Calm   1.0 mph 59% 0.00 in WeatherDisplay:10.37 W/m2 BKN
13:05 70.7 °F 55.7 °F 30.23 in Calm   1.0 mph 59% 0.00 in WeatherDisplay:10.37 W/m2 BKN
13:10 71.1 °F 56.5 °F 30.23 in Calm   1.0 mph 60% 0.00 in WeatherDisplay:10.37 W/m2 BKN
13:15 71.3 °F 57.2 °F 30.23 in Calm   1.0 mph 61% 0.00 in WeatherDisplay:10.37 W/m2 BKN
13:20 71.4 °F 56.8 °F 30.23 in Calm   1.0 mph 60% 0.00 in WeatherDisplay:10.37 W/m2 BKN
13:25 71.6 °F 57.9 °F 30.22 in Calm     62% 0.00 in WeatherDisplay:10.37 W/m2 BKN
13:30 71.8 °F 57.2 °F 30.22 in Calm   1.0 mph 60% 0.00 in WeatherDisplay:10.37 W/m2 BKN
13:35 71.9 °F 56.3 °F 30.22 in Calm   2.0 mph 58% 0.00 in WeatherDisplay:10.37 W/m2 BKN
13:40 71.7 °F 57.0 °F 30.22 in Calm   2.0 mph 60% 0.00 in WeatherDisplay:10.37 W/m2 BKN
13:45 71.6 °F 57.0 °F 30.21 in NE 1.2 mph 1.2 mph 60% 0.00 in WeatherDisplay:10.37 W/m2 BKN
13:50 71.6 °F 57.4 °F 30.21 in Calm   1.0 mph 61% 0.00 in WeatherDisplay:10.37 W/m2 BKN
13:55 71.7 °F 57.1 °F 30.21 in Calm   2.0 mph 60% 0.00 in WeatherDisplay:10.37 W/m2 BKN
14:00 72.2 °F 58.4 °F 30.21 in Calm   2.0 mph 62% 0.00 in WeatherDisplay:10.37 W/m2 BKN
14:05 72.4 °F 58.6 °F 30.21 in Calm   1.0 mph 62% 0.00 in WeatherDisplay:10.37 W/m2 BKN
14:10 72.1 °F 57.9 °F 30.21 in Calm   2.0 mph 61% 0.00 in WeatherDisplay:10.37 W/m2 BKN
14:15 71.9 °F 58.2 °F 30.21 in West 1.0 mph 1.0 mph 62% 0.00 in WeatherDisplay:10.37 W/m2 BKN
14:20 71.8 °F 58.1 °F 30.21 in Calm   1.0 mph 62% 0.00 in WeatherDisplay:10.37 W/m2 BKN
14:25 71.9 °F 59.1 °F 30.20 in Calm   2.0 mph 64% 0.00 in WeatherDisplay:10.37 W/m2 BKN
14:30 72.4 °F 58.6 °F 30.20 in West 2.3 mph   62% 0.00 in WeatherDisplay:10.37 W/m2 BKN
14:35 72.7 °F 59.4 °F 30.20 in Calm     63% 0.00 in WeatherDisplay:10.37 W/m2 BKN
14:40 72.3 °F 58.5 °F 30.20 in Calm     62% 0.00 in WeatherDisplay:10.37 W/m2 BKN
14:45 72.2 °F 58.9 °F 30.20 in Calm     63% 0.00 in WeatherDisplay:10.37 W/m2 BKN
14:50 72.2 °F 58.9 °F 30.20 in West 1.2 mph   63% 0.00 in WeatherDisplay:10.37 W/m2 BKN
14:55 72.0 °F 58.7 °F 30.19 in Calm     63% 0.00 in WeatherDisplay:10.37 W/m2 BKN
15:00 72.0 °F 57.8 °F 30.19 in Calm     61% 0.00 in WeatherDisplay:10.37 W/m2 BKN
15:05 72.1 °F 59.2 °F 30.19 in WNW 1.2 mph   64% 0.00 in WeatherDisplay:10.37 W/m2 BKN
15:10 72.2 °F 58.5 °F 30.19 in Calm     62% 0.00 in WeatherDisplay:10.37 W/m2 BKN
15:11 72.2 °F 58.5 °F 30.19 in Calm     62% 0.00 in WeatherDisplay:10.37 W/m2 BKN
15:16 72.6 °F 59.3 °F 30.19 in NW 1.0 mph 1.0 mph 63% 0.00 in WeatherDisplay:10.37 W/m2 BKN
15:21 72.6 °F 58.8 °F 30.19 in Calm     62% 0.00 in WeatherDisplay:10.37 W/m2 BKN
15:26 72.5 °F 59.2 °F 30.19 in West 2.3 mph 2.3 mph 63% 0.00 in WeatherDisplay:10.37 W/m2 BKN
15:32 72.1 °F 58.8 °F 30.19 in West 1.2 mph   63% 0.00 in WeatherDisplay:10.37 W/m2 BKN
15:37 71.9 °F 59.1 °F 30.18 in Calm     64% 0.00 in WeatherDisplay:10.37 W/m2 BKN
15:42 71.8 °F 59.4 °F 30.18 in Calm     65% 0.00 in WeatherDisplay:10.37 W/m2 BKN
15:47 71.8 °F 59.0 °F 30.18 in West 1.2 mph 1.2 mph 64% 0.00 in WeatherDisplay:10.37 W/m2 BKN
15:52 71.8 °F 58.5 °F 30.18 in NNW 1.2 mph   63% 0.00 in WeatherDisplay:10.37 W/m2 BKN
15:57 71.6 °F 59.6 °F 30.19 in Calm     66% 0.00 in WeatherDisplay:10.37 W/m2 BKN
16:02 71.4 °F 59.4 °F 30.19 in Calm     66% 0.00 in WeatherDisplay:10.37 W/m2 BKN
16:07 71.4 °F 60.3 °F 30.18 in Calm     68% 0.00 in WeatherDisplay:10.37 W/m2 BKN
16:12 71.5 °F 60.4 °F 30.18 in Calm     68% 0.00 in WeatherDisplay:10.37 W/m2 BKN
16:17 71.5 °F 58.7 °F 30.19 in NNW 1.2 mph   64% 0.00 in WeatherDisplay:10.37 W/m2 BKN
16:20 71.5 °F 59.5 °F 30.19 in Calm     66% 0.00 in WeatherDisplay:10.37 W/m2 BKN
16:25 71.5 °F 60.4 °F 30.19 in Calm     68% 0.00 in WeatherDisplay:10.37 W/m2 BKN
16:30 71.5 °F 60.8 °F 30.19 in Calm     69% 0.00 in WeatherDisplay:10.37 W/m2 BKN
16:35 71.4 °F 59.9 °F 30.18 in Calm     67% 0.00 in WeatherDisplay:10.37 W/m2 BKN
16:40 71.4 °F 59.9 °F 30.19 in Calm     67% 0.00 in WeatherDisplay:10.37 W/m2 BKN
16:45 71.4 °F 60.3 °F 30.19 in Calm     68% 0.00 in WeatherDisplay:10.37 W/m2 BKN
16:50 71.4 °F 60.7 °F 30.19 in Calm     69% 0.00 in WeatherDisplay:10.37 W/m2 BKN
16:55 71.2 °F 60.5 °F 30.19 in Calm     69% 0.00 in WeatherDisplay:10.37 W/m2 BKN
17:00 70.9 °F 60.6 °F 30.19 in Calm     70% 0.00 in WeatherDisplay:10.37 W/m2 BKN
17:05 70.4 °F 60.1 °F 30.19 in Calm     70% 0.00 in WeatherDisplay:10.37 W/m2 BKN
17:11 70.2 °F 60.4 °F 30.19 in Calm     71% 0.00 in WeatherDisplay:10.37 W/m2 BKN
17:16 70.1 °F 60.3 °F 30.19 in Calm     71% 0.00 in WeatherDisplay:10.37 W/m2 BKN
17:21 69.9 °F 60.1 °F 30.19 in Calm     71% 0.00 in WeatherDisplay:10.37 W/m2 BKN
17:26 69.7 °F 60.3 °F 30.19 in Calm     72% 0.00 in WeatherDisplay:10.37 W/m2 BKN
17:31 69.6 °F 60.6 °F 30.19 in Calm     73% 0.00 in WeatherDisplay:10.37 W/m2 BKN
17:36 69.5 °F 60.8 °F 30.19 in Calm     74% 0.00 in WeatherDisplay:10.37 W/m2 BKN
17:41 69.5 °F 60.8 °F 30.19 in Calm     74% 0.00 in WeatherDisplay:10.37 W/m2 BKN
17:46 69.3 °F 60.7 °F 30.19 in Calm     74% 0.00 in WeatherDisplay:10.37 W/m2 BKN
17:51 69.1 °F 60.5 °F 30.19 in Calm     74% 0.00 in WeatherDisplay:10.37 W/m2 BKN
17:56 69.0 °F 60.7 °F 30.19 in Calm     75% 0.00 in WeatherDisplay:10.37 W/m2 BKN
18:01 68.8 °F 60.6 °F 30.19 in Calm     75% 0.00 in WeatherDisplay:10.37 W/m2 BKN
18:06 68.6 °F 60.4 °F 30.19 in Calm     75% 0.00 in WeatherDisplay:10.37 W/m2 BKN
18:11 68.5 °F 60.6 °F 30.19 in Calm     76% 0.00 in WeatherDisplay:10.37 W/m2 BKN
18:16 68.3 °F 60.1 °F 30.19 in Calm     75% 0.00 in WeatherDisplay:10.37 W/m2 BKN
18:21 68.0 °F 60.2 °F 30.19 in Calm     76% 0.00 in WeatherDisplay:10.37 W/m2 BKN
18:23 68.0 °F 60.2 °F 30.19 in Calm     76% 0.00 in WeatherDisplay:10.37 W/m2 BKN
18:28 67.8 °F 60.0 °F 30.19 in Calm     76% 0.00 in WeatherDisplay:10.37 W/m2 BKN
18:33 67.6 °F 60.1 °F 30.19 in Calm     77% 0.00 in WeatherDisplay:10.37 W/m2 BKN
18:38 67.4 °F 59.9 °F 30.19 in Calm     77% 0.00 in WeatherDisplay:10.37 W/m2 BKN
18:43 67.3 °F 60.2 °F 30.19 in Calm     78% 0.00 in WeatherDisplay:10.37 W/m2 BKN
18:48 67.2 °F 60.1 °F 30.19 in Calm     78% 0.00 in WeatherDisplay:10.37 W/m2 BKN
18:53 67.0 °F 59.9 °F 30.19 in Calm     78% 0.00 in WeatherDisplay:10.37 W/m2 BKN
18:58 66.9 °F 59.8 °F 30.19 in Calm     78% 0.00 in WeatherDisplay:10.37 W/m2 BKN
19:03 66.7 °F 60.0 °F 30.19 in Calm     79% 0.00 in WeatherDisplay:10.37 W/m2 BKN
19:08 66.6 °F 59.9 °F 30.19 in Calm     79% 0.00 in WeatherDisplay:10.37 W/m2 BKN
19:13 66.3 °F 59.9 °F 30.19 in Calm     80% 0.00 in WeatherDisplay:10.37 W/m2 BKN
19:18 66.2 °F 59.8 °F 30.20 in Calm     80% 0.00 in WeatherDisplay:10.37 W/m2 BKN
19:23 66.1 °F 59.7 °F 30.20 in Calm     80% 0.00 in WeatherDisplay:10.37 W/m2 BKN
19:28 66.0 °F 60.0 °F 30.20 in Calm     81% 0.00 in WeatherDisplay:10.37 W/m2 BKN
19:33 65.8 °F 59.8 °F 30.20 in Calm     81% 0.00 in WeatherDisplay:10.37 W/m2 BKN
19:38 65.8 °F 60.2 °F 30.20 in Calm     82% 0.00 in WeatherDisplay:10.37 W/m2 BKN
19:43 65.7 °F 60.1 °F 30.20 in Calm     82% 0.00 in WeatherDisplay:10.37 W/m2 BKN
19:48 65.6 °F 60.0 °F 30.20 in Calm     82% 0.00 in WeatherDisplay:10.37 W/m2 BKN
19:53 65.5 °F 59.9 °F 30.20 in Calm     82% 0.00 in WeatherDisplay:10.37 W/m2 BKN
19:58 65.4 °F 60.1 °F 30.20 in Calm     83% 0.00 in WeatherDisplay:10.37 W/m2 BKN
20:04 65.3 °F 60.0 °F 30.20 in Calm     83% 0.00 in WeatherDisplay:10.37 W/m2 BKN
20:09 65.2 °F 59.9 °F 30.21 in Calm     83% 0.00 in WeatherDisplay:10.37 W/m2 BKN
20:14 65.2 °F 59.9 °F 30.21 in Calm     83% 0.00 in WeatherDisplay:10.37 W/m2 BKN
20:19 65.2 °F 59.9 °F 30.20 in Calm     83% 0.00 in WeatherDisplay:10.37 W/m2 BKN
20:24 65.1 °F 59.8 °F 30.20 in Calm     83% 0.00 in WeatherDisplay:10.37 W/m2 BKN
20:29 65.1 °F 59.8 °F 30.20 in Calm     83% 0.00 in WeatherDisplay:10.37 W/m2 BKN
20:34 64.9 °F 59.9 °F 30.20 in Calm     84% 0.00 in WeatherDisplay:10.37 W/m2 BKN
20:39 64.8 °F 59.9 °F 30.20 in Calm     84% 0.00 in WeatherDisplay:10.37 W/m2 BKN
20:44 64.7 °F 59.8 °F 30.20 in Calm     84% 0.00 in WeatherDisplay:10.37 W/m2 BKN
20:49 64.6 °F 59.7 °F 30.20 in Calm     84% 0.00 in WeatherDisplay:10.37 W/m2 BKN
20:54 64.4 °F 59.8 °F 30.20 in Calm     85% 0.00 in WeatherDisplay:10.37 W/m2 BKN
20:59 64.3 °F 59.7 °F 30.20 in Calm     85% 0.00 in WeatherDisplay:10.37 W/m2 BKN
21:04 64.1 °F 59.8 °F 30.20 in Calm     86% 0.00 in WeatherDisplay:10.37 W/m2 SCT
21:09 63.8 °F 59.5 °F 30.20 in Calm     86% 0.00 in WeatherDisplay:10.37 W/m2 SCT
21:14 63.7 °F 59.4 °F 30.21 in Calm     86% 0.00 in WeatherDisplay:10.37 W/m2 SCT
21:19 63.6 °F 59.3 °F 30.21 in Calm     86% 0.00 in WeatherDisplay:10.37 W/m2 SCT
21:24 63.5 °F 59.2 °F 30.21 in Calm     86% 0.00 in WeatherDisplay:10.37 W/m2 SCT
21:29 63.4 °F 59.1 °F 30.22 in Calm     86% 0.00 in WeatherDisplay:10.37 W/m2 SCT
21:34 63.3 °F 58.7 °F 30.22 in Calm     85% 0.00 in WeatherDisplay:10.37 W/m2 SCT
21:39 63.3 °F 59.0 °F 30.22 in Calm     86% 0.00 in WeatherDisplay:10.37 W/m2 SCT
21:44 63.2 °F 58.9 °F 30.22 in Calm     86% 0.00 in WeatherDisplay:10.37 W/m2 SCT
21:49 63.0 °F 58.7 °F 30.22 in Calm     86% 0.00 in WeatherDisplay:10.37 W/m2 SCT
21:54 62.8 °F 58.5 °F 30.22 in Calm     86% 0.00 in WeatherDisplay:10.37 W/m2 SCT
21:59 62.6 °F 58.4 °F 30.22 in Calm     86% 0.00 in WeatherDisplay:10.37 W/m2 SCT
22:04 62.4 °F 58.5 °F 30.23 in Calm     87% 0.00 in WeatherDisplay:10.37 W/m2 SCT
22:09 62.4 °F 58.5 °F 30.22 in Calm     87% 0.00 in WeatherDisplay:10.37 W/m2 SCT
22:14 62.1 °F 58.5 °F 30.22 in Calm     88% 0.00 in WeatherDisplay:10.37 W/m2 SCT
22:20 62.0 °F 58.4 °F 30.22 in Calm     88% 0.00 in WeatherDisplay:10.37 W/m2 SCT
22:25 61.8 °F 58.2 °F 30.22 in Calm     88% 0.00 in WeatherDisplay:10.37 W/m2 SCT
22:30 61.6 °F 58.0 °F 30.22 in Calm     88% 0.00 in WeatherDisplay:10.37 W/m2 SCT
22:35 61.5 °F 58.2 °F 30.22 in Calm     89% 0.00 in WeatherDisplay:10.37 W/m2 SCT
22:40 61.4 °F 58.1 °F 30.22 in Calm     89% 0.00 in WeatherDisplay:10.37 W/m2 SCT
22:45 61.3 °F 58.0 °F 30.22 in Calm     89% 0.00 in WeatherDisplay:10.37 W/m2 SCT
22:50 61.3 °F 58.0 °F 30.22 in Calm     89% 0.00 in WeatherDisplay:10.37 W/m2 SCT
22:55 61.2 °F 57.9 °F 30.22 in Calm     89% 0.00 in WeatherDisplay:10.37 W/m2 SCT
23:00 61.0 °F 57.8 °F 30.22 in Calm     89% 0.00 in WeatherDisplay:10.37 W/m2 SCT
23:05 60.9 °F 57.6 °F 30.22 in Calm     89% 0.00 in WeatherDisplay:10.37 W/m2 FEW
23:07 60.8 °F 57.5 °F 30.22 in Calm     89% 0.00 in WeatherDisplay:10.37 W/m2 FEW
23:13 60.7 °F 57.4 °F 30.22 in Calm     89% 0.00 in WeatherDisplay:10.37 W/m2 FEW
23:18 60.6 °F 57.7 °F 30.23 in Calm     90% 0.00 in WeatherDisplay:10.37 W/m2 FEW
23:23 60.7 °F 57.7 °F 30.23 in Calm     90% 0.00 in WeatherDisplay:10.37 W/m2 FEW
23:24 60.7 °F 57.7 °F 30.23 in Calm     90% 0.00 in WeatherDisplay:10.37 W/m2 FEW
23:26 60.6 °F 57.7 °F 30.23 in Calm     90% 0.00 in WeatherDisplay:10.37 W/m2 FEW
23:31 60.4 °F 57.5 °F 30.23 in Calm     90% 0.00 in WeatherDisplay:10.37 W/m2 FEW
23:36 60.3 °F 57.4 °F 30.23 in Calm     90% 0.00 in WeatherDisplay:10.37 W/m2 FEW
23:41 60.1 °F 57.2 °F 30.23 in Calm     90% 0.00 in WeatherDisplay:10.37 W/m2 FEW
23:46 59.9 °F 57.0 °F 30.23 in Calm     90% 0.00 in WeatherDisplay:10.37 W/m2 FEW
23:51 59.8 °F 56.9 °F 30.23 in Calm     90% 0.00 in WeatherDisplay:10.37 W/m2 FEW
23:56 59.6 °F 56.7 °F 30.23 in Calm     90% 0.00 in WeatherDisplay:10.37 W/m2 FEW
Piedmont Bend
Compliments of Weather Underground - 4 mb